sensor_id;sensor_type;location;lat;lon;timestamp;pressure;altitude;pressure_sealevel;temperature;humidity
25869;BME280;13688;53.154;18.136;2022-09-12T00:01:01;100842.08;;;7.82;100.00
25869;BME280;13688;53.154;18.136;2022-09-12T00:06:33;100839.19;;;7.85;100.00
25869;BME280;13688;53.154;18.136;2022-09-12T00:11:53;100844.39;;;8.00;100.00
25869;BME280;13688;53.154;18.136;2022-09-12T00:17:15;100843.75;;;7.97;100.00
25869;BME280;13688;53.154;18.136;2022-09-12T00:22:37;100841.17;;;7.95;100.00
25869;BME280;13688;53.154;18.136;2022-09-12T00:28:00;100845.36;;;7.99;100.00
25869;BME280;13688;53.154;18.136;2022-09-12T00:33:22;100841.33;;;8.07;100.00
25869;BME280;13688;53.154;18.136;2022-09-12T00:38:45;100842.30;;;8.06;100.00
25869;BME280;13688;53.154;18.136;2022-09-12T00:49:54;100833.16;;;8.22;100.00
25869;BME280;13688;53.154;18.136;2022-09-12T00:55:23;100827.91;;;8.21;100.00
25869;BME280;13688;53.154;18.136;2022-09-12T01:00:51;100828.66;;;8.23;100.00
25869;BME280;13688;53.154;18.136;2022-09-12T01:06:20;100832.30;;;8.22;100.00
25869;BME280;13688;53.154;18.136;2022-09-12T01:11:48;100847.95;;;8.28;100.00
25869;BME280;13688;53.154;18.136;2022-09-12T01:17:13;100841.38;;;8.19;100.00
25869;BME280;13688;53.154;18.136;2022-09-12T01:41:04;100829.41;;;8.25;100.00
25869;BME280;13688;53.154;18.136;2022-09-12T01:46:48;100832.83;;;8.41;100.00
25869;BME280;13688;53.154;18.136;2022-09-12T01:52:22;100837.23;;;8.28;100.00
25869;BME280;13688;53.154;18.136;2022-09-12T01:57:56;100837.66;;;8.22;100.00
25869;BME280;13688;53.154;18.136;2022-09-12T02:03:30;100841.12;;;8.10;100.00
25869;BME280;13688;53.154;18.136;2022-09-12T02:09:09;100839.83;;;8.02;100.00
25869;BME280;13688;53.154;18.136;2022-09-12T02:14:42;100841.72;;;8.00;100.00
25869;BME280;13688;53.154;18.136;2022-09-12T02:20:13;100850.43;;;8.04;100.00
25869;BME280;13688;53.154;18.136;2022-09-12T02:25:45;100834.47;;;8.02;100.00
25869;BME280;13688;53.154;18.136;2022-09-12T02:43:00;100849.59;;;7.89;100.00
25869;BME280;13688;53.154;18.136;2022-09-12T02:48:28;100854.77;;;7.92;100.00
25869;BME280;13688;53.154;18.136;2022-09-12T02:53:52;100855.03;;;8.02;100.00
25869;BME280;13688;53.154;18.136;2022-09-12T02:59:17;100859.32;;;8.04;100.00
25869;BME280;13688;53.154;18.136;2022-09-12T03:10:56;100860.28;;;8.03;100.00
25869;BME280;13688;53.154;18.136;2022-09-12T03:16:40;100866.01;;;8.12;100.00
25869;BME280;13688;53.154;18.136;2022-09-12T03:22:30;100868.11;;;8.07;100.00
25869;BME280;13688;53.154;18.136;2022-09-12T03:28:08;100865.64;;;8.03;100.00
25869;BME280;13688;53.154;18.136;2022-09-12T03:33:32;100863.34;;;7.97;100.00
25869;BME280;13688;53.154;18.136;2022-09-12T03:38:54;100871.37;;;7.97;100.00
25869;BME280;13688;53.154;18.136;2022-09-12T03:44:17;100866.23;;;7.94;100.00
25869;BME280;13688;53.154;18.136;2022-09-12T03:49:39;100870.46;;;7.84;100.00
25869;BME280;13688;53.154;18.136;2022-09-12T03:55:02;100875.71;;;7.86;100.00
25869;BME280;13688;53.154;18.136;2022-09-12T04:00:24;100883.95;;;7.83;100.00
25869;BME280;13688;53.154;18.136;2022-09-12T04:05:48;100890.91;;;7.85;100.00
25869;BME280;13688;53.154;18.136;2022-09-12T04:11:14;100890.33;;;7.80;100.00
25869;BME280;13688;53.154;18.136;2022-09-12T04:16:37;100881.72;;;7.89;100.00
25869;BME280;13688;53.154;18.136;2022-09-12T04:21:59;100882.03;;;7.85;100.00
25869;BME280;13688;53.154;18.136;2022-09-12T04:27:21;100885.45;;;7.87;100.00
25869;BME280;13688;53.154;18.136;2022-09-12T04:32:44;100889.95;;;7.72;100.00
25869;BME280;13688;53.154;18.136;2022-09-12T04:38:07;100888.72;;;7.78;100.00
25869;BME280;13688;53.154;18.136;2022-09-12T04:43:29;100894.55;;;7.84;100.00
25869;BME280;13688;53.154;18.136;2022-09-12T04:48:53;100907.45;;;7.92;100.00
25869;BME280;13688;53.154;18.136;2022-09-12T04:54:17;100913.95;;;8.02;100.00
25869;BME280;13688;53.154;18.136;2022-09-12T04:59:43;100906.83;;;8.15;100.00
25869;BME280;13688;53.154;18.136;2022-09-12T05:05:05;100907.58;;;8.17;100.00
25869;BME280;13688;53.154;18.136;2022-09-12T05:10:27;100907.38;;;8.35;100.00
25869;BME280;13688;53.154;18.136;2022-09-12T05:15:55;100917.97;;;8.50;100.00
25869;BME280;13688;53.154;18.136;2022-09-12T05:21:20;100909.98;;;8.76;100.00
25869;BME280;13688;53.154;18.136;2022-09-12T05:26:43;100918.33;;;8.98;100.00
25869;BME280;13688;53.154;18.136;2022-09-12T05:32:06;100919.42;;;9.21;100.00
25869;BME280;13688;53.154;18.136;2022-09-12T05:37:29;100923.63;;;9.38;100.00
25869;BME280;13688;53.154;18.136;2022-09-12T05:42:51;100923.62;;;9.51;100.00
25869;BME280;13688;53.154;18.136;2022-09-12T05:48:14;100927.81;;;9.67;100.00
25869;BME280;13688;53.154;18.136;2022-09-12T05:53:39;100927.56;;;9.83;100.00
25869;BME280;13688;53.154;18.136;2022-09-12T05:59:06;100930.14;;;9.97;100.00
25869;BME280;13688;53.154;18.136;2022-09-12T06:04:30;100933.09;;;10.18;100.00
25869;BME280;13688;53.154;18.136;2022-09-12T06:09:52;100934.80;;;10.32;100.00
25869;BME280;13688;53.154;18.136;2022-09-12T06:15:15;100935.16;;;10.51;100.00
25869;BME280;13688;53.154;18.136;2022-09-12T06:20:37;100934.44;;;10.73;100.00
25869;BME280;13688;53.154;18.136;2022-09-12T06:26:00;100939.05;;;10.95;100.00
25869;BME280;13688;53.154;18.136;2022-09-12T06:31:30;100929.70;;;11.12;100.00
25869;BME280;13688;53.154;18.136;2022-09-12T06:36:51;100932.69;;;11.31;100.00
25869;BME280;13688;53.154;18.136;2022-09-12T06:42:13;100938.23;;;11.52;100.00
25869;BME280;13688;53.154;18.136;2022-09-12T06:47:36;100932.64;;;11.78;100.00
25869;BME280;13688;53.154;18.136;2022-09-12T06:53:01;100936.34;;;11.99;100.00
25869;BME280;13688;53.154;18.136;2022-09-12T06:58:24;100935.59;;;12.19;94.68
25869;BME280;13688;53.154;18.136;2022-09-12T07:03:49;100934.56;;;12.43;91.36
25869;BME280;13688;53.154;18.136;2022-09-12T07:09:15;100939.06;;;12.65;86.71
25869;BME280;13688;53.154;18.136;2022-09-12T07:14:38;100933.45;;;12.88;81.30
25869;BME280;13688;53.154;18.136;2022-09-12T07:20:01;100930.26;;;13.15;78.45
25869;BME280;13688;53.154;18.136;2022-09-12T07:25:24;100934.12;;;13.34;74.69
25869;BME280;13688;53.154;18.136;2022-09-12T07:30:47;100950.43;;;13.74;73.89
25869;BME280;13688;53.154;18.136;2022-09-12T07:36:12;100941.09;;;13.88;71.97
25869;BME280;13688;53.154;18.136;2022-09-12T07:41:37;100949.89;;;14.11;71.37
25869;BME280;13688;53.154;18.136;2022-09-12T07:47:00;100956.08;;;14.32;67.51
25869;BME280;13688;53.154;18.136;2022-09-12T07:52:23;100969.32;;;14.35;64.94
25869;BME280;13688;53.154;18.136;2022-09-12T07:57:49;100958.81;;;14.42;62.77
25869;BME280;13688;53.154;18.136;2022-09-12T08:03:09;100972.80;;;14.47;62.79
25869;BME280;13688;53.154;18.136;2022-09-12T08:08:32;100960.44;;;14.54;61.47
25869;BME280;13688;53.154;18.136;2022-09-12T08:13:55;100969.89;;;14.69;60.71
25869;BME280;13688;53.154;18.136;2022-09-12T08:19:18;100967.34;;;14.77;60.46
25869;BME280;13688;53.154;18.136;2022-09-12T08:24:41;100964.66;;;14.97;61.52
25869;BME280;13688;53.154;18.136;2022-09-12T08:30:03;100966.18;;;14.70;60.69
25869;BME280;13688;53.154;18.136;2022-09-12T08:35:29;100981.86;;;14.86;59.36
25869;BME280;13688;53.154;18.136;2022-09-12T08:53:09;100971.63;;;15.28;56.47
25869;BME280;13688;53.154;18.136;2022-09-12T08:58:29;100977.05;;;15.38;57.12
25869;BME280;13688;53.154;18.136;2022-09-12T09:04:23;100968.59;;;15.70;55.65
25869;BME280;13688;53.154;18.136;2022-09-12T09:10:16;100983.16;;;15.40;53.08
25869;BME280;13688;53.154;18.136;2022-09-12T09:16:01;100977.31;;;15.54;54.41
25869;BME280;13688;53.154;18.136;2022-09-12T09:21:57;100971.38;;;15.97;51.68
25869;BME280;13688;53.154;18.136;2022-09-12T09:27:04;100966.42;;;16.20;51.25
25869;BME280;13688;53.154;18.136;2022-09-12T09:32:35;100967.91;;;16.42;51.86
25869;BME280;13688;53.154;18.136;2022-09-12T09:38:49;100971.52;;;16.60;50.06
25869;BME280;13688;53.154;18.136;2022-09-12T09:43:31;100969.50;;;16.63;48.89
25869;BME280;13688;53.154;18.136;2022-09-12T09:48:55;100976.25;;;17.22;47.57
25869;BME280;13688;53.154;18.136;2022-09-12T09:54:39;100979.05;;;17.30;47.38
25869;BME280;13688;53.154;18.136;2022-09-12T10:00:22;100970.31;;;17.44;48.41
25869;BME280;13688;53.154;18.136;2022-09-12T10:05:54;100975.27;;;18.60;46.71
25869;BME280;13688;53.154;18.136;2022-09-12T10:11:24;100976.97;;;18.19;47.55
25869;BME280;13688;53.154;18.136;2022-09-12T10:16:54;100972.20;;;17.87;46.54
25869;BME280;13688;53.154;18.136;2022-09-12T10:22:25;100967.92;;;19.20;46.39
25869;BME280;13688;53.154;18.136;2022-09-12T10:27:56;100967.09;;;19.11;42.79
25869;BME280;13688;53.154;18.136;2022-09-12T10:33:16;100963.19;;;19.70;42.42
25869;BME280;13688;53.154;18.136;2022-09-12T10:38:40;100964.48;;;18.85;43.82
25869;BME280;13688;53.154;18.136;2022-09-12T10:44:24;100960.28;;;19.72;40.47
25869;BME280;13688;53.154;18.136;2022-09-12T10:49:47;100959.26;;;19.32;42.04
25869;BME280;13688;53.154;18.136;2022-09-12T10:55:16;100961.47;;;18.54;44.94
25869;BME280;13688;53.154;18.136;2022-09-12T11:00:39;100964.97;;;18.04;46.28
25869;BME280;13688;53.154;18.136;2022-09-12T11:06:05;100959.18;;;18.75;47.21
25869;BME280;13688;53.154;18.136;2022-09-12T11:11:55;100956.70;;;19.71;42.13
25869;BME280;13688;53.154;18.136;2022-09-12T11:17:40;100953.42;;;20.48;41.42
25869;BME280;13688;53.154;18.136;2022-09-12T11:35:29;100943.16;;;20.50;42.77
25869;BME280;13688;53.154;18.136;2022-09-12T11:41:14;100945.27;;;22.15;37.35
25869;BME280;13688;53.154;18.136;2022-09-12T11:46:45;100949.52;;;20.34;39.82
25869;BME280;13688;53.154;18.136;2022-09-12T11:52:22;100954.06;;;18.80;45.35
25869;BME280;13688;53.154;18.136;2022-09-12T11:57:52;100953.79;;;19.81;45.75
25869;BME280;13688;53.154;18.136;2022-09-12T12:03:42;100950.06;;;20.69;40.98
25869;BME280;13688;53.154;18.136;2022-09-12T12:08:52;100935.37;;;19.75;41.90
25869;BME280;13688;53.154;18.136;2022-09-12T12:14:24;100952.56;;;18.86;43.46
25869;BME280;13688;53.154;18.136;2022-09-12T12:19:57;100950.58;;;18.62;46.66
25869;BME280;13688;53.154;18.136;2022-09-12T12:25:24;100939.95;;;20.38;43.18
25869;BME280;13688;53.154;18.136;2022-09-12T12:31:05;100945.23;;;19.92;42.47
25869;BME280;13688;53.154;18.136;2022-09-12T12:36:36;100953.71;;;18.33;47.71
25869;BME280;13688;53.154;18.136;2022-09-12T12:41:59;100950.47;;;18.72;45.80
25869;BME280;13688;53.154;18.136;2022-09-12T12:47:32;100950.89;;;19.01;45.83
25869;BME280;13688;53.154;18.136;2022-09-12T12:53:23;100937.08;;;20.94;41.07
25869;BME280;13688;53.154;18.136;2022-09-12T12:58:46;100937.48;;;22.04;38.07
25869;BME280;13688;53.154;18.136;2022-09-12T13:04:22;100925.13;;;21.40;39.88
25869;BME280;13688;53.154;18.136;2022-09-12T13:09:49;100920.38;;;22.46;36.34
25869;BME280;13688;53.154;18.136;2022-09-12T13:21:08;100915.00;;;21.79;37.37
25869;BME280;13688;53.154;18.136;2022-09-12T13:26:39;100909.45;;;21.72;36.57
25869;BME280;13688;53.154;18.136;2022-09-12T13:32:02;100914.42;;;21.54;37.68
25869;BME280;13688;53.154;18.136;2022-09-12T13:43:23;100916.84;;;20.18;40.63
25869;BME280;13688;53.154;18.136;2022-09-12T13:48:47;100901.00;;;21.44;37.89
25869;BME280;13688;53.154;18.136;2022-09-12T13:54:14;100908.81;;;22.14;36.80
25869;BME280;13688;53.154;18.136;2022-09-12T13:59:45;100897.72;;;22.37;35.10
25869;BME280;13688;53.154;18.136;2022-09-12T14:05:20;100903.78;;;22.03;35.36
25869;BME280;13688;53.154;18.136;2022-09-12T14:10:44;100905.52;;;22.55;34.85
25869;BME280;13688;53.154;18.136;2022-09-12T14:16:09;100889.23;;;20.98;37.47
25869;BME280;13688;53.154;18.136;2022-09-12T14:21:40;100900.67;;;20.47;40.30
25869;BME280;13688;53.154;18.136;2022-09-12T14:27:03;100892.14;;;21.57;37.99
25869;BME280;13688;53.154;18.136;2022-09-12T14:32:28;100894.82;;;22.24;36.10
25869;BME280;13688;53.154;18.136;2022-09-12T14:37:55;100899.45;;;22.09;36.10
25869;BME280;13688;53.154;18.136;2022-09-12T14:43:38;100894.76;;;20.67;38.41
25869;BME280;13688;53.154;18.136;2022-09-12T14:49:17;100895.31;;;19.67;40.83
25869;BME280;13688;53.154;18.136;2022-09-12T14:54:43;100885.88;;;21.10;38.84
25869;BME280;13688;53.154;18.136;2022-09-12T15:00:19;100886.19;;;20.70;39.33
25869;BME280;13688;53.154;18.136;2022-09-12T15:05:47;100897.53;;;19.39;41.82
25869;BME280;13688;53.154;18.136;2022-09-12T15:11:12;100896.19;;;19.43;41.73
25869;BME280;13688;53.154;18.136;2022-09-12T15:16:34;100896.05;;;20.09;41.48
25869;BME280;13688;53.154;18.136;2022-09-12T15:21:56;100893.20;;;19.94;41.31
25869;BME280;13688;53.154;18.136;2022-09-12T15:27:19;100892.52;;;19.92;40.70
25869;BME280;13688;53.154;18.136;2022-09-12T15:32:42;100885.94;;;20.56;40.28
25869;BME280;13688;53.154;18.136;2022-09-12T15:38:05;100890.80;;;20.92;39.62
25869;BME280;13688;53.154;18.136;2022-09-12T15:43:29;100894.70;;;20.44;40.33
25869;BME280;13688;53.154;18.136;2022-09-12T15:48:51;100886.75;;;20.88;39.94
25869;BME280;13688;53.154;18.136;2022-09-12T15:54:15;100899.29;;;20.74;40.28
25869;BME280;13688;53.154;18.136;2022-09-12T15:59:38;100894.00;;;20.50;40.11
25869;BME280;13688;53.154;18.136;2022-09-12T16:05:01;100899.48;;;20.03;42.17
25869;BME280;13688;53.154;18.136;2022-09-12T16:10:27;100907.45;;;20.12;41.12
25869;BME280;13688;53.154;18.136;2022-09-12T16:15:50;100898.67;;;20.64;41.19
25869;BME280;13688;53.154;18.136;2022-09-12T16:21:13;100892.27;;;20.80;40.03
25869;BME280;13688;53.154;18.136;2022-09-12T16:26:36;100898.37;;;19.72;43.95
25869;BME280;13688;53.154;18.136;2022-09-12T16:31:59;100895.69;;;18.99;45.72
25869;BME280;13688;53.154;18.136;2022-09-12T16:37:22;100888.37;;;18.33;48.58
25869;BME280;13688;53.154;18.136;2022-09-12T16:42:44;100897.60;;;17.46;51.99
25869;BME280;13688;53.154;18.136;2022-09-12T16:48:07;100890.49;;;16.38;54.02
25869;BME280;13688;53.154;18.136;2022-09-12T16:53:30;100885.14;;;15.73;57.88
25869;BME280;13688;53.154;18.136;2022-09-12T16:58:54;100889.08;;;15.13;59.74
25869;BME280;13688;53.154;18.136;2022-09-12T17:04:18;100886.98;;;14.78;60.86
25869;BME280;13688;53.154;18.136;2022-09-12T17:09:41;100890.31;;;14.31;63.48
25869;BME280;13688;53.154;18.136;2022-09-12T17:15:03;100888.64;;;13.90;65.23
25869;BME280;13688;53.154;18.136;2022-09-12T17:20:26;100884.25;;;13.68;65.73
25869;BME280;13688;53.154;18.136;2022-09-12T17:25:53;100886.78;;;13.91;63.59
25869;BME280;13688;53.154;18.136;2022-09-12T17:31:17;100894.84;;;14.21;61.30
25869;BME280;13688;53.154;18.136;2022-09-12T17:36:40;100898.80;;;14.17;60.94
25869;BME280;13688;53.154;18.136;2022-09-12T17:42:03;100895.89;;;13.90;62.14
25869;BME280;13688;53.154;18.136;2022-09-12T17:47:25;100898.31;;;13.93;61.86
25869;BME280;13688;53.154;18.136;2022-09-12T17:52:51;100905.56;;;13.92;62.08
25869;BME280;13688;53.154;18.136;2022-09-12T17:58:15;100899.22;;;13.72;63.19
25869;BME280;13688;53.154;18.136;2022-09-12T18:03:37;100902.59;;;13.65;63.32
25869;BME280;13688;53.154;18.136;2022-09-12T18:09:02;100904.97;;;13.58;63.58
25869;BME280;13688;53.154;18.136;2022-09-12T18:14:26;100905.98;;;13.36;64.51
25869;BME280;13688;53.154;18.136;2022-09-12T18:19:48;100900.11;;;13.31;64.76
25869;BME280;13688;53.154;18.136;2022-09-12T18:25:11;100901.59;;;13.66;63.42
25869;BME280;13688;53.154;18.136;2022-09-12T18:30:34;100896.52;;;13.72;62.54
25869;BME280;13688;53.154;18.136;2022-09-12T18:36:01;100898.41;;;13.82;61.74
25869;BME280;13688;53.154;18.136;2022-09-12T18:41:22;100905.57;;;13.62;62.23
25869;BME280;13688;53.154;18.136;2022-09-12T18:46:45;100906.86;;;13.67;62.14
25869;BME280;13688;53.154;18.136;2022-09-12T18:52:08;100903.39;;;13.56;62.41
25869;BME280;13688;53.154;18.136;2022-09-12T18:57:30;100908.18;;;13.10;64.48
25869;BME280;13688;53.154;18.136;2022-09-12T19:02:53;100916.81;;;12.72;66.78
25869;BME280;13688;53.154;18.136;2022-09-12T19:08:16;100910.88;;;12.57;69.26
25869;BME280;13688;53.154;18.136;2022-09-12T19:13:42;100913.77;;;12.22;70.29
25869;BME280;13688;53.154;18.136;2022-09-12T19:19:05;100908.89;;;11.94;71.52
25869;BME280;13688;53.154;18.136;2022-09-12T19:24:28;100904.02;;;11.88;72.40
25869;BME280;13688;53.154;18.136;2022-09-12T19:29:51;100896.27;;;11.72;73.19
25869;BME280;13688;53.154;18.136;2022-09-12T19:35:14;100898.23;;;11.59;74.20
25869;BME280;13688;53.154;18.136;2022-09-12T19:40:36;100904.08;;;11.53;74.70
25869;BME280;13688;53.154;18.136;2022-09-12T19:45:59;100898.45;;;11.56;74.87
25869;BME280;13688;53.154;18.136;2022-09-12T19:51:23;100893.56;;;11.50;74.98
25869;BME280;13688;53.154;18.136;2022-09-12T19:56:45;100896.00;;;11.41;75.41
25869;BME280;13688;53.154;18.136;2022-09-12T20:02:08;100889.37;;;11.34;75.92
25869;BME280;13688;53.154;18.136;2022-09-12T20:07:30;100885.56;;;11.26;76.20
25869;BME280;13688;53.154;18.136;2022-09-12T20:12:52;100885.69;;;11.24;76.45
25869;BME280;13688;53.154;18.136;2022-09-12T20:18:15;100887.38;;;11.14;76.77
25869;BME280;13688;53.154;18.136;2022-09-12T20:23:37;100888.33;;;11.02;77.02
25869;BME280;13688;53.154;18.136;2022-09-12T20:29:00;100888.72;;;10.73;78.03
25869;BME280;13688;53.154;18.136;2022-09-12T20:34:24;100898.86;;;10.46;80.06
25869;BME280;13688;53.154;18.136;2022-09-12T20:39:47;100892.03;;;10.29;81.88
25869;BME280;13688;53.154;18.136;2022-09-12T20:45:10;100885.17;;;10.12;83.07
25869;BME280;13688;53.154;18.136;2022-09-12T20:50:32;100888.76;;;10.00;84.11
25869;BME280;13688;53.154;18.136;2022-09-12T20:55:55;100896.00;;;9.87;85.48
25869;BME280;13688;53.154;18.136;2022-09-12T21:01:19;100889.34;;;9.80;86.28
25869;BME280;13688;53.154;18.136;2022-09-12T21:06:43;100886.14;;;9.62;86.78
25869;BME280;13688;53.154;18.136;2022-09-12T21:12:05;100885.42;;;9.47;87.73
25869;BME280;13688;53.154;18.136;2022-09-12T21:17:27;100874.36;;;9.39;89.40
25869;BME280;13688;53.154;18.136;2022-09-12T21:22:50;100874.34;;;9.26;91.36
25869;BME280;13688;53.154;18.136;2022-09-12T21:28:12;100875.64;;;9.08;93.13
25869;BME280;13688;53.154;18.136;2022-09-12T21:33:34;100870.80;;;9.00;95.50
25869;BME280;13688;53.154;18.136;2022-09-12T21:38:57;100864.46;;;8.88;97.19
25869;BME280;13688;53.154;18.136;2022-09-12T21:44:19;100868.81;;;8.77;98.55
25869;BME280;13688;53.154;18.136;2022-09-12T21:49:41;100869.36;;;8.69;99.89
25869;BME280;13688;53.154;18.136;2022-09-12T21:55:04;100870.10;;;8.71;100.00
25869;BME280;13688;53.154;18.136;2022-09-12T22:00:28;100872.73;;;8.58;100.00
25869;BME280;13688;53.154;18.136;2022-09-12T22:05:55;100869.91;;;8.47;100.00
25869;BME280;13688;53.154;18.136;2022-09-12T22:11:15;100857.83;;;8.54;100.00
25869;BME280;13688;53.154;18.136;2022-09-12T22:16:37;100857.94;;;8.53;100.00
25869;BME280;13688;53.154;18.136;2022-09-12T22:22:00;100854.55;;;8.37;100.00
25869;BME280;13688;53.154;18.136;2022-09-12T22:27:40;100851.20;;;8.33;100.00
25869;BME280;13688;53.154;18.136;2022-09-12T22:33:03;100849.98;;;8.24;100.00
25869;BME280;13688;53.154;18.136;2022-09-12T22:38:25;100849.73;;;8.15;100.00
25869;BME280;13688;53.154;18.136;2022-09-12T22:43:47;100850.06;;;7.96;100.00
25869;BME280;13688;53.154;18.136;2022-09-12T22:49:10;100841.56;;;7.89;100.00
25869;BME280;13688;53.154;18.136;2022-09-12T22:54:32;100846.63;;;7.94;100.00
25869;BME280;13688;53.154;18.136;2022-09-12T22:59:54;100845.61;;;7.82;100.00
25869;BME280;13688;53.154;18.136;2022-09-12T23:05:18;100846.48;;;7.68;100.00
25869;BME280;13688;53.154;18.136;2022-09-12T23:10:41;100842.77;;;7.57;100.00
25869;BME280;13688;53.154;18.136;2022-09-12T23:16:05;100837.80;;;7.51;100.00
25869;BME280;13688;53.154;18.136;2022-09-12T23:21:30;100833.48;;;7.62;100.00
25869;BME280;13688;53.154;18.136;2022-09-12T23:26:52;100834.74;;;7.57;100.00
25869;BME280;13688;53.154;18.136;2022-09-12T23:32:14;100815.64;;;7.49;100.00
25869;BME280;13688;53.154;18.136;2022-09-12T23:37:36;100814.19;;;7.43;100.00
25869;BME280;13688;53.154;18.136;2022-09-12T23:42:59;100805.14;;;7.45;100.00
25869;BME280;13688;53.154;18.136;2022-09-12T23:48:21;100800.81;;;7.43;100.00
25869;BME280;13688;53.154;18.136;2022-09-12T23:53:43;100802.84;;;7.39;100.00
25869;BME280;13688;53.154;18.136;2022-09-12T23:59:05;100803.31;;;7.32;100.00
